Time;durP1;ratioP1;P1;durP2;ratioP2;P2;SDS_P1;SDS_P2;PMS_P1;PMS_P2;Temp;Humidity;BMP_temperature;BMP_pressure;BME280_temperature;BME280_humidity;BME280_pressure;Samples;Min_cycle;Max_cycle;Signal;HPM_P1;HPM_P2
2022/03/27 00:00:17;;;;;;;;;46.00;37.75;;;;;-142.59;100.00;56100.38;5093264;27;50612;-63
2022/03/27 00:02:43;;;;;;;;;54.25;42.50;;;;;-142.59;100.00;56100.38;5092989;27;50478;-64
2022/03/27 00:05:10;;;;;;;;;50.50;39.50;;;;;-142.59;100.00;56100.38;5093205;27;49867;-63
2022/03/27 00:07:36;;;;;;;;;56.50;47.50;;;;;-142.59;100.00;56100.38;5092840;27;49849;-62
2022/03/27 00:10:03;;;;;;;;;42.25;35.50;;;;;-142.59;100.00;56100.38;5093056;27;50039;-62
2022/03/27 00:12:28;;;;;;;;;48.25;40.25;;;;;-142.59;100.00;56100.38;5092581;27;50538;-63
2022/03/27 00:14:54;;;;;;;;;51.75;41.25;;;;;-142.59;100.00;56100.38;5092853;27;49777;-62
2022/03/27 00:17:19;;;;;;;;;48.00;40.50;;;;;-142.59;100.00;56100.38;5092905;27;49714;-63
2022/03/27 00:19:44;;;;;;;;;48.25;39.50;;;;;-142.59;100.00;56100.38;5093080;27;49750;-63
2022/03/27 00:22:10;;;;;;;;;54.75;40.75;;;;;-142.59;100.00;56100.38;5092874;27;50354;-62
2022/03/27 00:24:35;;;;;;;;;49.75;40.75;;;;;-142.59;100.00;56100.38;5092524;27;49772;-63
2022/03/27 00:27:01;;;;;;;;;52.75;40.75;;;;;-142.59;100.00;56100.38;5092411;27;50373;-63
2022/03/27 00:29:26;;;;;;;;;56.25;40.75;;;;;-142.59;100.00;56100.38;5093124;27;49753;-63
2022/03/27 00:31:51;;;;;;;;;52.25;41.50;;;;;-142.59;100.00;56100.38;5092194;27;50839;-63
2022/03/27 00:34:19;;;;;;;;;38.50;32.00;;;;;-142.59;100.00;56100.38;5092592;27;49624;-62
2022/03/27 00:36:45;;;;;;;;;54.50;42.00;;;;;-142.59;100.00;56100.38;5092663;27;49802;-64
2022/03/27 00:39:10;;;;;;;;;52.00;40.00;;;;;-142.59;100.00;56100.38;5092561;27;49712;-63
2022/03/27 00:41:36;;;;;;;;;58.75;44.50;;;;;-142.59;100.00;56100.38;5091867;27;49852;-65
2022/03/27 00:44:02;;;;;;;;;51.75;39.75;;;;;-142.59;100.00;56100.38;5092650;27;49922;-65
2022/03/27 00:46:27;;;;;;;;;50.75;42.00;;;;;-142.59;100.00;56100.38;5092515;27;49779;-64
2022/03/27 00:48:54;;;;;;;;;51.75;43.75;;;;;-142.59;100.00;56100.38;5091354;27;49766;-63
2022/03/27 00:51:19;;;;;;;;;56.75;43.50;;;;;-142.59;100.00;56100.38;5092121;27;50639;-62
2022/03/27 00:53:45;;;;;;;;;44.75;39.00;;;;;-142.59;100.00;56100.38;5092043;27;49667;-67
2022/03/27 00:56:10;;;;;;;;;54.00;39.75;;;;;-142.59;100.00;56100.38;5092003;27;49925;-64
2022/03/27 00:58:35;;;;;;;;;45.25;38.00;;;;;-142.59;100.00;56100.38;5092294;27;49798;-67
2022/03/27 01:01:11;;;;;;;;;47.25;40.75;;;;;-142.59;100.00;56100.38;5092208;27;49900;-66
2022/03/27 01:03:37;;;;;;;;;58.00;41.75;;;;;-142.59;100.00;56100.38;5092048;27;49774;-67
2022/03/27 01:06:03;;;;;;;;;50.50;40.75;;;;;-142.59;100.00;56100.38;5092314;27;49899;-66
2022/03/27 01:11:20;;;;;;;;;56.00;41.00;;;;;-142.59;100.00;56100.38;5091374;27;49835;-63
2022/03/27 01:13:52;;;;;;;;;57.50;48.75;;;;;-142.59;100.00;56100.38;5091936;27;49931;-66
2022/03/27 01:16:30;;;;;;;;;56.00;44.00;;;;;-142.59;100.00;56100.38;5091835;27;49862;-66
2022/03/27 01:18:56;;;;;;;;;45.25;38.75;;;;;-142.59;100.00;56100.38;5091869;27;49849;-62
2022/03/27 01:21:22;;;;;;;;;54.00;43.25;;;;;-142.59;100.00;56100.38;5091695;27;50523;-63
2022/03/27 01:23:47;;;;;;;;;46.75;40.25;;;;;-142.59;100.00;56100.38;5091931;27;49792;-63
2022/03/27 01:26:12;;;;;;;;;41.25;32.50;;;;;-142.59;100.00;56100.38;5091610;27;49807;-62
2022/03/27 01:28:38;;;;;;;;;44.75;39.75;;;;;-142.59;100.00;56100.38;5092136;27;49603;-62
2022/03/27 01:31:07;;;;;;;;;57.00;43.25;;;;;-142.59;100.00;56100.38;5091958;27;50001;-64
2022/03/27 01:33:32;;;;;;;;;42.50;37.50;;;;;-142.59;100.00;56100.38;5091591;27;49781;-64
2022/03/27 01:35:58;;;;;;;;;51.25;40.50;;;;;-142.59;100.00;56100.38;5091525;27;49762;-62
2022/03/27 01:38:23;;;;;;;;;53.25;42.25;;;;;-142.59;100.00;56100.38;5091999;27;49752;-63
2022/03/27 01:40:48;;;;;;;;;58.00;41.25;;;;;-142.59;100.00;56100.38;5091237;27;49750;-62
2022/03/27 01:43:14;;;;;;;;;41.50;37.50;;;;;-142.59;100.00;56100.38;5091688;27;49713;-61
2022/03/27 01:45:41;;;;;;;;;51.00;39.50;;;;;-142.59;100.00;56100.38;5091474;27;50266;-61
2022/03/27 01:48:06;;;;;;;;;53.00;42.75;;;;;-142.59;100.00;56100.38;5091795;27;49845;-62
2022/03/27 01:50:31;;;;;;;;;45.75;38.75;;;;;-142.59;100.00;56100.38;5091172;27;49826;-62
2022/03/27 01:52:57;;;;;;;;;51.25;43.75;;;;;-142.59;100.00;56100.38;5090365;27;49915;-61
2022/03/27 01:55:22;;;;;;;;;42.25;37.50;;;;;-142.59;100.00;56100.38;5091096;27;49709;-63
2022/03/27 01:57:47;;;;;;;;;41.50;37.50;;;;;-142.59;100.00;56100.38;5091631;27;49989;-62
2022/03/27 02:00:14;;;;;;;;;52.50;41.00;;;;;-142.59;100.00;56100.38;5091259;27;49726;-61
2022/03/27 02:02:40;;;;;;;;;46.25;38.50;;;;;-142.59;100.00;56100.38;5091227;27;49667;-62
2022/03/27 02:05:06;;;;;;;;;44.00;37.50;;;;;-142.59;100.00;56100.38;5091417;27;49797;-62
2022/03/27 02:07:39;;;;;;;;;48.25;37.25;;;;;-142.59;100.00;56100.38;5091663;27;49804;-62
2022/03/27 02:10:05;;;;;;;;;49.25;36.75;;;;;-142.59;100.00;56100.38;5091094;27;50056;-64
2022/03/27 02:12:34;;;;;;;;;44.50;37.00;;;;;-142.59;100.00;56100.38;5090789;27;49737;-62
2022/03/27 02:15:00;;;;;;;;;37.75;34.50;;;;;-142.59;100.00;56100.38;5091229;27;49995;-62
2022/03/27 02:17:26;;;;;;;;;38.75;35.00;;;;;-142.59;100.00;56100.38;5091488;27;49984;-62
2022/03/27 02:19:51;;;;;;;;;47.75;38.00;;;;;-142.59;100.00;56100.38;5091128;27;50301;-62
2022/03/27 02:22:16;;;;;;;;;44.25;37.75;;;;;-142.59;100.00;56100.38;5091097;27;49874;-65
2022/03/27 02:24:41;;;;;;;;;41.75;36.25;;;;;-142.59;100.00;56100.38;5091117;27;49631;-63
2022/03/27 02:27:07;;;;;;;;;45.00;34.75;;;;;-142.59;100.00;56100.38;5090899;27;49761;-62
2022/03/27 02:29:32;;;;;;;;;47.50;38.25;;;;;-142.59;100.00;56100.38;5090689;27;50284;-64
2022/03/27 02:31:58;;;;;;;;;41.00;36.75;;;;;-142.59;100.00;56100.38;5090772;27;49613;-66
2022/03/27 02:34:23;;;;;;;;;31.00;24.50;;;;;-142.59;100.00;56100.38;5090979;27;49769;-62
2022/03/27 02:36:48;;;;;;;;;41.25;33.00;;;;;-142.59;100.00;56100.38;5091160;27;50000;-63
2022/03/27 02:39:17;;;;;;;;;38.75;34.75;;;;;-142.59;100.00;56100.38;5090771;27;49690;-66
2022/03/27 02:41:42;;;;;;;;;41.75;37.25;;;;;-142.59;100.00;56100.38;5090575;27;49784;-66
2022/03/27 02:44:09;;;;;;;;;43.00;35.75;;;;;-142.59;100.00;56100.38;5090790;27;50163;-62
2022/03/27 02:46:35;;;;;;;;;48.50;39.00;;;;;-142.59;100.00;56100.38;5090817;27;50045;-67
2022/03/27 02:49:00;;;;;;;;;36.75;34.25;;;;;-142.59;100.00;56100.38;5090629;27;49787;-62
2022/03/27 02:51:25;;;;;;;;;35.25;33.75;;;;;-142.59;100.00;56100.38;5090428;27;49639;-64
2022/03/27 02:53:51;;;;;;;;;44.25;37.25;;;;;-142.59;100.00;56100.38;5090854;27;49836;-67
2022/03/27 02:56:16;;;;;;;;;46.00;37.25;;;;;-142.59;100.00;56100.38;5090586;27;49805;-65
2022/03/27 02:58:42;;;;;;;;;35.00;33.25;;;;;-142.59;100.00;56100.38;5090409;27;51030;-62
2022/03/27 03:01:07;;;;;;;;;42.25;35.25;;;;;-142.59;100.00;56100.38;5090572;27;49877;-65
2022/03/27 03:03:33;;;;;;;;;46.75;38.25;;;;;-142.59;100.00;56100.38;5090350;27;49682;-63
2022/03/27 03:06:00;;;;;;;;;46.50;37.00;;;;;-142.59;100.00;56100.38;5093810;27;49863;-67
2022/03/27 03:08:27;;;;;;;;;42.00;37.75;;;;;-142.59;100.00;56100.38;5093808;27;49707;-66
2022/03/27 03:10:52;;;;;;;;;42.25;36.25;;;;;-142.59;100.00;56100.38;5093665;27;49675;-62
2022/03/27 03:13:18;;;;;;;;;34.75;32.25;;;;;-142.59;100.00;56100.38;5093970;27;49846;-63
2022/03/27 03:15:44;;;;;;;;;37.25;35.00;;;;;-142.59;100.00;56100.38;5094461;27;49971;-63
2022/03/27 03:18:10;;;;;;;;;39.00;33.75;;;;;-142.59;100.00;56100.38;5093547;27;50318;-63
2022/03/27 03:20:37;;;;;;;;;41.75;35.50;;;;;-142.59;100.00;56100.38;5093870;27;49798;-66
2022/03/27 03:23:03;;;;;;;;;43.50;37.50;;;;;-142.59;100.00;56100.38;5093730;27;49692;-63
2022/03/27 03:25:29;;;;;;;;;37.75;32.75;;;;;-142.59;100.00;56100.38;5093608;27;49904;-63
2022/03/27 03:27:55;;;;;;;;;40.75;37.25;;;;;-142.59;100.00;56100.38;5093479;27;50122;-63
2022/03/27 03:30:20;;;;;;;;;43.25;37.00;;;;;-142.59;100.00;56100.38;5093966;27;49620;-64
2022/03/27 03:32:46;;;;;;;;;34.75;32.50;;;;;-142.59;100.00;56100.38;5093816;27;49789;-62
2022/03/27 03:35:11;;;;;;;;;41.75;35.50;;;;;-142.59;100.00;56100.38;5093796;27;49774;-67
2022/03/27 03:37:37;;;;;;;;;42.00;36.00;;;;;-142.59;100.00;56100.38;5108829;27;49917;-64
2022/03/27 03:40:06;;;;;;;;;36.00;31.25;;;;;-142.59;100.00;56100.38;5093349;27;50485;-67
2022/03/27 03:42:32;;;;;;;;;37.75;30.75;;;;;-142.59;100.00;56100.38;5093449;27;49794;-63
2022/03/27 03:44:58;;;;;;;;;39.00;35.25;;;;;-142.59;100.00;56100.38;5093663;27;50045;-64
2022/03/27 03:47:23;;;;;;;;;41.25;36.50;;;;;-142.59;100.00;56100.38;5093413;27;50336;-62
2022/03/27 03:49:48;;;;;;;;;25.25;24.00;;;;;-142.59;100.00;56100.38;5093472;27;49825;-64
2022/03/27 03:52:14;;;;;;;;;20.75;15.75;;;;;-142.59;100.00;56100.38;5093289;27;49857;-67
2022/03/27 03:54:39;;;;;;;;;36.50;33.25;;;;;-142.59;100.00;56100.38;5093284;27;49884;-62
2022/03/27 03:57:06;;;;;;;;;36.00;33.00;;;;;-142.59;100.00;56100.38;5092313;27;50671;-62
2022/03/27 03:59:33;;;;;;;;;40.75;37.50;;;;;-142.59;100.00;56100.38;5093396;27;49793;-61
2022/03/27 04:01:59;;;;;;;;;41.00;37.75;;;;;-142.59;100.00;56100.38;5093525;27;49716;-63
2022/03/27 04:04:26;;;;;;;;;42.50;37.50;;;;;-142.59;100.00;56100.38;5113348;27;49617;-62
2022/03/27 04:06:52;;;;;;;;;38.25;34.00;;;;;-142.59;100.00;56100.38;5112569;27;49694;-62
2022/03/27 04:09:17;;;;;;;;;42.25;34.00;;;;;-142.59;100.00;56100.38;5113201;27;49921;-62
2022/03/27 04:11:43;;;;;;;;;45.00;35.00;;;;;-142.59;100.00;56100.38;5112908;27;49950;-62
2022/03/27 04:14:08;;;;;;;;;33.50;32.25;;;;;-142.59;100.00;56100.38;5128540;27;49896;-62
2022/03/27 04:16:34;;;;;;;;;38.25;34.00;;;;;-142.59;100.00;56100.38;5111543;27;49766;-62
2022/03/27 04:18:59;;;;;;;;;44.00;35.50;;;;;-142.59;100.00;56100.38;5112730;27;49824;-62
2022/03/27 04:21:25;;;;;;;;;38.25;31.00;;;;;-142.59;100.00;56100.38;5112797;27;49613;-65
2022/03/27 04:23:50;;;;;;;;;39.25;35.00;;;;;-142.59;100.00;56100.38;5112705;27;49675;-62
2022/03/27 04:26:15;;;;;;;;;43.00;38.25;;;;;-142.59;100.00;56100.38;5112352;27;50444;-63
2022/03/27 04:28:41;;;;;;;;;40.00;34.25;;;;;-142.59;100.00;56100.38;5112490;27;49720;-63
2022/03/27 04:31:06;;;;;;;;;42.75;36.75;;;;;-142.59;100.00;56100.38;5112960;27;49936;-65
2022/03/27 04:33:32;;;;;;;;;41.50;37.75;;;;;-142.59;100.00;56100.38;5112416;27;49981;-62
2022/03/27 04:35:57;;;;;;;;;45.25;40.25;;;;;-142.59;100.00;56100.38;5112580;27;51062;-63
2022/03/27 04:38:22;;;;;;;;;36.75;32.00;;;;;-142.59;100.00;56100.38;5112126;27;49760;-62
2022/03/27 04:40:50;;;;;;;;;39.50;37.00;;;;;-142.59;100.00;56100.38;5112481;27;49717;-63
2022/03/27 04:43:15;;;;;;;;;38.00;34.75;;;;;-142.59;100.00;56100.38;5112754;27;49960;-66
2022/03/27 04:45:41;;;;;;;;;35.00;34.25;;;;;-142.59;100.00;56100.38;5112128;27;49726;-63
2022/03/27 04:48:06;;;;;;;;;31.00;29.00;;;;;-142.59;100.00;56100.38;5112322;27;49692;-66
2022/03/27 04:50:31;;;;;;;;;46.25;38.25;;;;;-142.59;100.00;56100.38;5112238;27;49750;-64
2022/03/27 04:52:57;;;;;;;;;45.50;36.00;;;;;-142.59;100.00;56100.38;5111880;27;49993;-63
2022/03/27 04:55:22;;;;;;;;;39.75;35.00;;;;;-142.59;100.00;56100.38;5112249;27;50177;-64
2022/03/27 04:57:48;;;;;;;;;40.25;34.75;;;;;-142.59;100.00;56100.38;5111695;27;50034;-62
2022/03/27 05:00:17;;;;;;;;;39.25;35.25;;;;;-142.59;100.00;56100.38;5112151;27;49817;-62
2022/03/27 05:02:43;;;;;;;;;41.50;33.00;;;;;-142.59;100.00;56100.38;5112088;27;49973;-66
2022/03/27 05:05:11;;;;;;;;;42.50;36.50;;;;;-142.59;100.00;56100.38;5111706;27;49663;-64
2022/03/27 05:07:38;;;;;;;;;43.25;37.75;;;;;-142.59;100.00;56100.38;5111853;27;49771;-63
2022/03/27 05:10:04;;;;;;;;;39.25;31.50;;;;;-142.59;100.00;56100.38;5111786;27;49840;-64
2022/03/27 05:12:30;;;;;;;;;44.75;36.00;;;;;-142.59;100.00;56100.38;5111906;27;50115;-64
2022/03/27 05:14:55;;;;;;;;;36.25;33.75;;;;;-142.59;100.00;56100.38;5111561;27;50294;-63
2022/03/27 05:17:21;;;;;;;;;35.50;33.75;;;;;-142.59;100.00;56100.38;5111876;27;49791;-62
2022/03/27 05:19:46;;;;;;;;;38.00;35.50;;;;;-142.59;100.00;56100.38;5112286;27;49756;-63
2022/03/27 05:22:12;;;;;;;;;43.00;35.25;;;;;-142.59;100.00;56100.38;5111919;27;49697;-62
2022/03/27 05:24:37;;;;;;;;;34.50;31.25;;;;;-142.59;100.00;56100.38;5111542;27;50852;-62
2022/03/27 05:27:02;;;;;;;;;37.75;36.00;;;;;-142.59;100.00;56100.38;5127269;27;49682;-65
2022/03/27 05:29:28;;;;;;;;;41.50;35.25;;;;;-142.59;100.00;56100.38;5111536;27;49724;-62
2022/03/27 05:31:53;;;;;;;;;46.50;39.00;;;;;-142.59;100.00;56100.38;5112315;27;50152;-62
2022/03/27 05:34:18;;;;;;;;;42.00;37.00;;;;;-142.59;100.00;56100.38;5111335;27;50296;-62
2022/03/27 05:36:45;;;;;;;;;49.25;40.25;;;;;-142.59;100.00;56100.38;5111452;27;49725;-63
2022/03/27 05:39:11;;;;;;;;;30.75;28.75;;;;;-142.59;100.00;56100.38;5111106;27;50329;-63
2022/03/27 05:41:37;;;;;;;;;40.75;35.00;;;;;-142.59;100.00;56100.38;5111561;27;49871;-63
2022/03/27 05:44:02;;;;;;;;;44.75;35.50;;;;;-142.59;100.00;56100.38;5110938;27;50759;-63
2022/03/27 05:46:28;;;;;;;;;38.50;37.00;;;;;-142.59;100.00;56100.38;5111248;27;49658;-63
2022/03/27 05:48:53;;;;;;;;;40.00;32.25;;;;;-142.59;100.00;56100.38;5104736;27;49971;-64
2022/03/27 05:51:18;;;;;;;;;43.50;37.00;;;;;-142.59;100.00;56100.38;5097557;27;49911;-63
2022/03/27 05:53:44;;;;;;;;;49.75;39.00;;;;;-142.59;100.00;56100.38;5103062;27;49771;-62
2022/03/27 05:56:10;;;;;;;;;40.00;36.25;;;;;-142.59;100.00;56100.38;5090616;27;49695;-62
2022/03/27 05:58:37;;;;;;;;;35.25;33.25;;;;;-142.59;100.00;56100.38;5099672;27;49777;-63
2022/03/27 06:01:04;;;;;;;;;42.25;34.00;;;;;-142.59;100.00;56100.38;5091766;27;50074;-63
2022/03/27 06:03:29;;;;;;;;;41.00;36.00;;;;;-142.59;100.00;56100.38;5091318;27;49829;-63
2022/03/27 06:05:54;;;;;;;;;43.25;35.25;;;;;-142.59;100.00;56100.38;5109628;27;49739;-63
2022/03/27 06:08:20;;;;;;;;;38.75;35.50;;;;;-142.59;100.00;56100.38;5092512;27;50355;-63
2022/03/27 06:10:45;;;;;;;;;41.25;37.50;;;;;-142.59;100.00;56100.38;5091712;27;49800;-63
2022/03/27 06:13:10;;;;;;;;;37.75;35.00;;;;;-142.59;100.00;56100.38;5094289;27;50809;-62
2022/03/27 06:15:36;;;;;;;;;41.75;36.75;;;;;-142.59;100.00;56100.38;5099791;27;49746;-67
2022/03/27 06:18:02;;;;;;;;;35.00;34.00;;;;;-142.59;100.00;56100.38;5099695;27;49813;-67
2022/03/27 06:20:29;;;;;;;;;35.50;31.00;;;;;-142.59;100.00;56100.38;5104474;27;49963;-66
2022/03/27 06:22:56;;;;;;;;;33.75;32.75;;;;;-142.59;100.00;56100.38;5104145;27;51117;-65
2022/03/27 06:25:24;;;;;;;;;46.75;36.75;;;;;-142.59;100.00;56100.38;5096912;27;51053;-67
2022/03/27 06:27:50;;;;;;;;;39.00;35.00;;;;;-142.59;100.00;56100.38;5093897;27;49718;-66
2022/03/27 06:30:18;;;;;;;;;48.00;40.00;;;;;-142.59;100.00;56100.38;5107835;27;49787;-64
2022/03/27 06:32:44;;;;;;;;;46.00;37.00;;;;;-142.59;100.00;56100.38;5110517;27;50752;-67
2022/03/27 06:35:11;;;;;;;;;37.00;34.00;;;;;-142.59;100.00;56100.38;5110655;27;49996;-67
2022/03/27 06:37:37;;;;;;;;;42.75;37.50;;;;;-142.59;100.00;56100.38;5110890;27;49768;-63
2022/03/27 06:40:04;;;;;;;;;47.00;39.00;;;;;-142.59;100.00;56100.38;5112749;27;49564;-65
2022/03/27 06:42:29;;;;;;;;;38.50;36.50;;;;;-142.59;100.00;56100.38;5113805;27;50644;-63
2022/03/27 06:44:55;;;;;;;;;42.00;36.00;;;;;-142.59;100.00;56100.38;5114220;27;49911;-66
2022/03/27 06:47:23;;;;;;;;;42.25;34.50;;;;;-142.59;100.00;56100.38;5114311;27;49670;-62
2022/03/27 06:49:50;;;;;;;;;42.25;37.75;;;;;-142.59;100.00;56100.38;5114475;27;49877;-64
2022/03/27 06:52:16;;;;;;;;;39.50;35.50;;;;;-142.59;100.00;56100.38;5113803;27;50451;-73
2022/03/27 06:54:43;;;;;;;;;41.00;35.25;;;;;-142.59;100.00;56100.38;5114113;27;50482;-66
2022/03/27 06:57:09;;;;;;;;;46.25;39.25;;;;;-142.59;100.00;56100.38;5106070;27;49864;-63
2022/03/27 07:05:03;;;;;;;;;43.50;38.25;;;;;-142.59;100.00;56100.38;5095270;27;50362;-64
2022/03/27 07:07:29;;;;;;;;;34.00;31.00;;;;;-142.59;100.00;56100.38;5094229;27;49921;-64
2022/03/27 07:09:55;;;;;;;;;38.50;35.75;;;;;-142.59;100.00;56100.38;5094456;27;49695;-65
2022/03/27 07:12:20;;;;;;;;;41.25;37.00;;;;;-142.59;100.00;56100.38;5093124;27;51179;-65
2022/03/27 07:14:46;;;;;;;;;46.25;36.75;;;;;-142.59;100.00;56100.38;5093860;27;50090;-65
2022/03/27 07:17:15;;;;;;;;;40.50;36.75;;;;;-142.59;100.00;56100.38;5093818;27;50029;-61
2022/03/27 07:19:40;;;;;;;;;41.00;35.00;;;;;-142.59;100.00;56100.38;5100498;27;50011;-61
2022/03/27 07:22:06;;;;;;;;;34.50;31.75;;;;;-142.59;100.00;56100.38;5097177;27;50068;-61
2022/03/27 07:24:31;;;;;;;;;40.75;36.50;;;;;-142.59;100.00;56100.38;5099228;27;49730;-61
2022/03/27 07:26:56;;;;;;;;;35.50;33.25;;;;;-142.59;100.00;56100.38;5110369;27;49858;-61
2022/03/27 07:29:22;;;;;;;;;41.00;36.50;;;;;-142.59;100.00;56100.38;5112124;27;49723;-61
2022/03/27 07:31:49;;;;;;;;;44.50;38.25;;;;;-142.59;100.00;56100.38;5109749;27;50844;-60
2022/03/27 07:34:16;;;;;;;;;42.25;37.75;;;;;-142.59;100.00;56100.38;5107261;27;49867;-62
2022/03/27 07:36:42;;;;;;;;;35.50;34.00;;;;;-142.59;100.00;56100.38;5106886;27;49536;-60
2022/03/27 07:39:09;;;;;;;;;42.50;38.00;;;;;-142.59;100.00;56100.38;5098760;27;49861;-57
2022/03/27 07:41:34;;;;;;;;;51.75;37.75;;;;;-142.59;100.00;56100.38;5099592;27;50211;-59
2022/03/27 07:44:00;;;;;;;;;43.00;37.25;;;;;-142.59;100.00;56100.38;5102433;27;49903;-58
2022/03/27 07:46:26;;;;;;;;;36.50;31.50;;;;;-142.59;100.00;56100.38;5106557;27;49651;-59
2022/03/27 07:48:52;;;;;;;;;39.75;36.25;;;;;-142.59;100.00;56100.38;5111862;27;49786;-57
2022/03/27 07:51:17;;;;;;;;;38.00;34.75;;;;;-142.59;100.00;56100.38;5104915;27;51392;-58
2022/03/27 07:53:43;;;;;;;;;45.50;35.25;;;;;-142.59;100.00;56100.38;5106031;27;49860;-58
2022/03/27 07:56:08;;;;;;;;;41.75;36.50;;;;;-142.59;100.00;56100.38;5111876;27;49884;-57
2022/03/27 07:58:34;;;;;;;;;42.75;36.50;;;;;-142.59;100.00;56100.38;5112522;27;49820;-59
2022/03/27 08:00:59;;;;;;;;;38.25;33.75;;;;;-142.59;100.00;56100.38;5099844;27;51703;-58
2022/03/27 08:03:25;;;;;;;;;40.75;37.00;;;;;-142.59;100.00;56100.38;5103902;27;49675;-59
2022/03/27 08:05:50;;;;;;;;;40.75;36.25;;;;;-142.59;100.00;56100.38;5111904;27;49707;-72
2022/03/27 08:08:16;;;;;;;;;40.75;36.00;;;;;-142.59;100.00;56100.38;5113064;27;49782;-74
2022/03/27 08:10:43;;;;;;;;;39.25;37.25;;;;;-142.59;100.00;56100.38;5112814;27;49850;-77
2022/03/27 08:13:08;;;;;;;;;40.50;34.75;;;;;-142.59;100.00;56100.38;5112512;27;49957;-61
2022/03/27 08:15:34;;;;;;;;;46.25;40.25;;;;;-142.59;100.00;56100.38;5112628;27;49740;-61
2022/03/27 08:17:59;;;;;;;;;41.00;34.25;;;;;-142.59;100.00;56100.38;5128960;27;50149;-59
2022/03/27 08:20:26;;;;;;;;;43.25;36.25;;;;;-142.59;100.00;56100.38;5112640;27;49755;-63
2022/03/27 08:22:52;;;;;;;;;41.75;35.25;;;;;-142.59;100.00;56100.38;5112700;27;49878;-61
2022/03/27 08:28:03;;;;;;;;;40.25;37.50;;;;;-142.59;100.00;56100.38;5112381;27;49783;-60
2022/03/27 08:30:28;;;;;;;;;35.75;34.25;;;;;-142.59;100.00;56100.38;5112304;27;50086;-61
2022/03/27 08:32:53;;;;;;;;;37.50;32.75;;;;;-142.59;100.00;56100.38;5112597;27;49975;-66
2022/03/27 08:35:19;;;;;;;;;36.25;34.50;;;;;-142.59;100.00;56100.38;5112648;27;49869;-63
2022/03/27 08:37:45;;;;;;;;;43.50;37.00;;;;;-142.59;100.00;56100.38;5112743;27;50203;-60
2022/03/27 08:40:11;;;;;;;;;42.25;35.75;;;;;-142.59;100.00;56100.38;5112278;27;50410;-60
2022/03/27 08:42:37;;;;;;;;;37.25;28.25;;;;;-142.59;100.00;56100.38;5112282;27;49908;-60
2022/03/27 08:45:03;;;;;;;;;37.75;34.50;;;;;-142.59;100.00;56100.38;5112209;27;49588;-60
2022/03/27 08:47:30;;;;;;;;;33.00;28.50;;;;;-142.59;100.00;56100.38;5112472;27;49868;-69
2022/03/27 08:50:00;;;;;;;;;43.75;34.75;;;;;-142.59;100.00;56100.38;5111931;27;49895;-62
2022/03/27 08:52:53;;;;;;;;;34.25;29.50;;;;;-142.59;100.00;56100.38;5111972;27;49625;-59
2022/03/27 08:55:23;;;;;;;;;37.50;36.25;;;;;-142.59;100.00;56100.38;5111601;27;49733;-60
2022/03/27 08:57:55;;;;;;;;;38.75;34.00;;;;;-142.59;100.00;56100.38;5112311;27;49706;-67
2022/03/27 09:00:27;;;;;;;;;39.25;34.25;;;;;-142.59;100.00;56100.38;5111785;27;51028;-69
2022/03/27 09:02:53;;;;;;;;;25.00;19.00;;;;;-142.59;100.00;56100.38;5110558;27;49723;-65
2022/03/27 09:05:22;;;;;;;;;39.25;33.25;;;;;-142.59;100.00;56100.38;5111924;27;49799;-71
2022/03/27 09:07:48;;;;;;;;;35.00;34.25;;;;;-142.59;100.00;56100.38;5112036;27;50080;-68
2022/03/27 09:10:14;;;;;;;;;41.75;34.00;;;;;-142.59;100.00;56100.38;5110353;27;52255;-71
2022/03/27 09:12:40;;;;;;;;;42.00;35.25;;;;;-142.59;100.00;56100.38;5111694;27;49599;-67
2022/03/27 09:15:08;;;;;;;;;33.25;29.75;;;;;-142.59;100.00;56100.38;5111928;27;49871;-65
2022/03/27 09:18:01;;;;;;;;;43.00;33.00;;;;;-142.59;100.00;56100.38;5112092;27;50006;-73
2022/03/27 09:20:31;;;;;;;;;40.00;34.00;;;;;-142.59;100.00;56100.38;5111570;27;50640;-69
2022/03/27 09:23:10;;;;;;;;;38.50;34.75;;;;;-142.59;100.00;56100.38;5111644;27;49776;-72
2022/03/27 09:25:47;;;;;;;;;34.50;31.75;;;;;-142.59;100.00;56100.38;5112042;27;49851;-73
2022/03/27 09:28:22;;;;;;;;;42.75;34.75;;;;;-142.59;100.00;56100.38;5127927;27;49795;-71
2022/03/27 09:30:47;;;;;;;;;36.25;30.00;;;;;-142.59;100.00;56100.38;5111831;27;50446;-68
2022/03/27 09:33:30;;;;;;;;;37.75;33.00;;;;;-142.59;100.00;56100.38;5111652;27;49678;-70
2022/03/27 09:36:11;;;;;;;;;37.25;32.75;;;;;-142.59;100.00;56100.38;5111706;27;49677;-69
2022/03/27 09:38:37;;;;;;;;;33.50;31.00;;;;;-142.59;100.00;56100.38;5111904;27;49609;-79
2022/03/27 09:41:03;;;;;;;;;35.50;31.75;;;;;-142.59;100.00;56100.38;5111674;27;50824;-73
2022/03/27 09:43:28;;;;;;;;;42.25;33.75;;;;;-142.59;100.00;56100.38;5111143;27;49718;-71
2022/03/27 09:46:00;;;;;;;;;30.75;29.25;;;;;-142.59;100.00;56100.38;5111479;27;49725;-75
2022/03/27 09:48:27;;;;;;;;;112.00;107.00;;;;;-142.59;100.00;56100.38;5111720;27;50102;-74
2022/03/27 09:50:54;;;;;;;;;2145.00;1581.67;;;;;-142.59;100.00;56100.38;5110484;27;49881;-78
2022/03/27 09:53:22;;;;;;;;;172.75;156.00;;;;;-142.59;100.00;56100.38;5110975;27;49865;-79
2022/03/27 09:55:57;;;;;;;;;80.00;66.67;;;;;-142.59;100.00;56100.38;5110212;27;49817;-72
2022/03/27 09:58:38;;;;;;;;;123.00;114.33;;;;;-142.59;100.00;56100.38;5111104;27;50155;-72
2022/03/27 10:01:15;;;;;;;;;107.75;101.75;;;;;-142.59;100.00;56100.38;5106895;27;49773;-79
2022/03/27 10:04:13;;;;;;;;;;;;;;;;;;;;;
2022/03/27 10:06:40;;;;;;;;;62.50;50.25;;;;;-142.59;100.00;56100.38;5096533;27;74216;-75
2022/03/27 10:09:08;;;;;;;;;124.00;113.67;;;;;-142.59;100.00;56100.38;5099588;27;49636;-78
2022/03/27 10:11:34;;;;;;;;;66.25;51.75;;;;;-142.59;100.00;56100.38;5099449;27;49764;-72
2022/03/27 10:14:01;;;;;;;;;49.00;40.50;;;;;-142.59;100.00;56100.38;5111266;27;49533;-73
2022/03/27 10:16:30;;;;;;;;;31.50;26.25;;;;;-142.59;100.00;56100.38;5104032;27;49839;-76
2022/03/27 10:19:06;;;;;;;;;38.50;34.50;;;;;-142.59;100.00;56100.38;5110612;27;49889;-76
2022/03/27 10:21:34;;;;;;;;;55.75;46.00;;;;;-142.59;100.00;56100.38;5110960;27;50259;-75
2022/03/27 10:24:06;;;;;;;;;59.25;48.25;;;;;-142.59;100.00;56100.38;5109664;27;49800;-76
2022/03/27 10:26:33;;;;;;;;;37.50;33.25;;;;;-142.59;100.00;56100.38;5095093;27;50423;-70
2022/03/27 10:29:01;;;;;;;;;38.50;34.25;;;;;-142.59;100.00;56100.38;5090443;27;50013;-71
2022/03/27 10:31:27;;;;;;;;;40.75;34.50;;;;;-142.59;100.00;56100.38;5098290;27;51871;-75
2022/03/27 10:33:55;;;;;;;;;42.00;36.75;;;;;-142.59;100.00;56100.38;5093945;27;49759;-67
2022/03/27 10:36:42;;;;;;;;;34.25;31.00;;;;;-142.59;100.00;56100.38;5096203;27;49777;-75
2022/03/27 10:39:25;;;;;;;;;59.75;48.50;;;;;-142.59;100.00;56100.38;5103312;27;49961;-76
2022/03/27 10:42:02;;;;;;;;;44.50;35.50;;;;;-142.59;100.00;56100.38;5091594;27;49824;-86
2022/03/27 10:44:45;;;;;;;;;78.75;61.25;;;;;-142.59;100.00;56100.38;5092932;27;49679;-69
2022/03/27 10:47:24;;;;;;;;;62.25;50.25;;;;;-142.59;100.00;56100.38;5090377;27;49815;-71
2022/03/27 10:50:04;;;;;;;;;126.00;118.25;;;;;-142.59;100.00;56100.38;5091379;27;49947;-71
2022/03/27 10:52:34;;;;;;;;;206.75;187.75;;;;;-142.59;100.00;56100.38;5093787;27;49900;-74
2022/03/27 10:55:02;;;;;;;;;111.67;100.00;;;;;-142.59;100.00;56100.38;5106498;27;49665;-72
2022/03/27 10:57:30;;;;;;;;;59.25;47.00;;;;;-142.59;100.00;56100.38;5108649;27;49938;-76
2022/03/27 10:59:56;;;;;;;;;174.50;152.50;;;;;-142.59;100.00;56100.38;5100311;27;49942;-67
2022/03/27 11:02:41;;;;;;;;;82.33;66.67;;;;;-142.59;100.00;56100.38;5106605;27;49715;-68
2022/03/27 11:05:06;;;;;;;;;48.00;40.75;;;;;-142.59;100.00;56100.38;5091392;27;49961;-70